sensor_id;sensor_type;location;lat;lon;timestamp;P1;durP1;ratioP1;P2;durP2;ratioP2
16543;SDS011;8384;47.996;7.786;2023-04-15T00:00:27;3.60;;;1.60;;
16543;SDS011;8384;47.996;7.786;2023-04-15T00:02:55;2.85;;;1.50;;
16543;SDS011;8384;47.996;7.786;2023-04-15T00:05:20;2.93;;;1.70;;
16543;SDS011;8384;47.996;7.786;2023-04-15T00:07:46;2.43;;;1.50;;
16543;SDS011;8384;47.996;7.786;2023-04-15T00:10:11;3.30;;;1.50;;
16543;SDS011;8384;47.996;7.786;2023-04-15T00:12:38;3.25;;;1.50;;
16543;SDS011;8384;47.996;7.786;2023-04-15T00:15:03;2.60;;;1.60;;
16543;SDS011;8384;47.996;7.786;2023-04-15T00:17:29;2.17;;;1.50;;
16543;SDS011;8384;47.996;7.786;2023-04-15T00:19:55;3.17;;;1.52;;
16543;SDS011;8384;47.996;7.786;2023-04-15T00:22:20;2.47;;;1.43;;
16543;SDS011;8384;47.996;7.786;2023-04-15T00:24:45;2.60;;;1.37;;
16543;SDS011;8384;47.996;7.786;2023-04-15T00:27:10;2.17;;;1.30;;
16543;SDS011;8384;47.996;7.786;2023-04-15T00:29:36;2.70;;;1.50;;
16543;SDS011;8384;47.996;7.786;2023-04-15T00:32:01;2.57;;;1.37;;
16543;SDS011;8384;47.996;7.786;2023-04-15T00:34:26;2.90;;;1.40;;
16543;SDS011;8384;47.996;7.786;2023-04-15T00:36:52;3.13;;;1.40;;
16543;SDS011;8384;47.996;7.786;2023-04-15T00:39:18;2.95;;;1.50;;
16543;SDS011;8384;47.996;7.786;2023-04-15T00:41:43;3.23;;;1.33;;
16543;SDS011;8384;47.996;7.786;2023-04-15T00:44:09;3.00;;;1.30;;
16543;SDS011;8384;47.996;7.786;2023-04-15T00:46:35;2.97;;;1.50;;
16543;SDS011;8384;47.996;7.786;2023-04-15T00:49:06;2.95;;;1.40;;
16543;SDS011;8384;47.996;7.786;2023-04-15T00:51:32;3.00;;;1.50;;
16543;SDS011;8384;47.996;7.786;2023-04-15T00:54:00;3.88;;;1.45;;
16543;SDS011;8384;47.996;7.786;2023-04-15T00:56:26;2.10;;;1.25;;
16543;SDS011;8384;47.996;7.786;2023-04-15T00:58:53;1.80;;;1.17;;
16543;SDS011;8384;47.996;7.786;2023-04-15T01:01:19;1.83;;;1.20;;
16543;SDS011;8384;47.996;7.786;2023-04-15T01:03:46;2.03;;;1.37;;
16543;SDS011;8384;47.996;7.786;2023-04-15T01:06:13;1.73;;;1.10;;
16543;SDS011;8384;47.996;7.786;2023-04-15T01:08:39;2.70;;;1.23;;
16543;SDS011;8384;47.996;7.786;2023-04-15T01:11:04;1.80;;;1.00;;
16543;SDS011;8384;47.996;7.786;2023-04-15T01:13:31;2.67;;;1.20;;
16543;SDS011;8384;47.996;7.786;2023-04-15T01:15:58;2.97;;;1.23;;
16543;SDS011;8384;47.996;7.786;2023-04-15T01:18:23;2.07;;;1.20;;
16543;SDS011;8384;47.996;7.786;2023-04-15T01:20:48;2.30;;;1.10;;
16543;SDS011;8384;47.996;7.786;2023-04-15T01:23:14;2.70;;;1.40;;
16543;SDS011;8384;47.996;7.786;2023-04-15T01:25:40;2.47;;;1.30;;
16543;SDS011;8384;47.996;7.786;2023-04-15T01:28:07;1.92;;;1.30;;
16543;SDS011;8384;47.996;7.786;2023-04-15T01:30:33;2.03;;;1.17;;
16543;SDS011;8384;47.996;7.786;2023-04-15T01:32:59;2.28;;;1.20;;
16543;SDS011;8384;47.996;7.786;2023-04-15T01:35:24;1.73;;;1.07;;
16543;SDS011;8384;47.996;7.786;2023-04-15T01:37:49;1.97;;;1.17;;
16543;SDS011;8384;47.996;7.786;2023-04-15T01:40:15;2.87;;;1.20;;
16543;SDS011;8384;47.996;7.786;2023-04-15T01:42:40;3.90;;;1.60;;
16543;SDS011;8384;47.996;7.786;2023-04-15T01:45:05;3.10;;;2.03;;
16543;SDS011;8384;47.996;7.786;2023-04-15T01:47:32;2.30;;;1.25;;
16543;SDS011;8384;47.996;7.786;2023-04-15T01:49:57;1.80;;;1.10;;
16543;SDS011;8384;47.996;7.786;2023-04-15T01:52:22;2.63;;;1.10;;
16543;SDS011;8384;47.996;7.786;2023-04-15T01:54:48;2.43;;;1.20;;
16543;SDS011;8384;47.996;7.786;2023-04-15T01:57:13;1.73;;;1.10;;
16543;SDS011;8384;47.996;7.786;2023-04-15T01:59:38;2.37;;;1.20;;
16543;SDS011;8384;47.996;7.786;2023-04-15T02:02:05;2.10;;;1.10;;
16543;SDS011;8384;47.996;7.786;2023-04-15T02:04:30;1.50;;;1.10;;
16543;SDS011;8384;47.996;7.786;2023-04-15T02:06:55;1.70;;;1.23;;
16543;SDS011;8384;47.996;7.786;2023-04-15T02:09:21;2.50;;;1.30;;
16543;SDS011;8384;47.996;7.786;2023-04-15T02:11:46;1.83;;;1.23;;
16543;SDS011;8384;47.996;7.786;2023-04-15T02:14:11;2.67;;;1.20;;
16543;SDS011;8384;47.996;7.786;2023-04-15T02:16:37;2.08;;;1.02;;
16543;SDS011;8384;47.996;7.786;2023-04-15T02:19:02;2.53;;;1.20;;
16543;SDS011;8384;47.996;7.786;2023-04-15T02:21:28;1.67;;;1.05;;
16543;SDS011;8384;47.996;7.786;2023-04-15T02:23:54;2.20;;;1.10;;
16543;SDS011;8384;47.996;7.786;2023-04-15T02:26:19;2.65;;;1.20;;
16543;SDS011;8384;47.996;7.786;2023-04-15T02:28:46;3.20;;;1.20;;
16543;SDS011;8384;47.996;7.786;2023-04-15T02:31:12;2.53;;;1.23;;
16543;SDS011;8384;47.996;7.786;2023-04-15T02:33:37;2.45;;;1.20;;
16543;SDS011;8384;47.996;7.786;2023-04-15T02:36:02;1.90;;;1.25;;
16543;SDS011;8384;47.996;7.786;2023-04-15T02:38:28;2.17;;;1.00;;
16543;SDS011;8384;47.996;7.786;2023-04-15T02:40:55;2.95;;;1.25;;
16543;SDS011;8384;47.996;7.786;2023-04-15T02:43:21;2.40;;;1.30;;
16543;SDS011;8384;47.996;7.786;2023-04-15T02:45:46;2.93;;;1.20;;
16543;SDS011;8384;47.996;7.786;2023-04-15T02:48:12;2.83;;;1.13;;
16543;SDS011;8384;47.996;7.786;2023-04-15T02:50:37;2.05;;;1.10;;
16543;SDS011;8384;47.996;7.786;2023-04-15T02:53:05;1.83;;;1.00;;
16543;SDS011;8384;47.996;7.786;2023-04-15T02:55:31;1.60;;;1.00;;
16543;SDS011;8384;47.996;7.786;2023-04-15T02:57:56;1.90;;;0.93;;
16543;SDS011;8384;47.996;7.786;2023-04-15T03:00:24;1.65;;;1.02;;
16543;SDS011;8384;47.996;7.786;2023-04-15T03:02:50;1.60;;;1.17;;
16543;SDS011;8384;47.996;7.786;2023-04-15T03:05:20;2.05;;;1.20;;
16543;SDS011;8384;47.996;7.786;2023-04-15T03:07:47;1.80;;;1.10;;
16543;SDS011;8384;47.996;7.786;2023-04-15T03:10:12;1.98;;;1.02;;
16543;SDS011;8384;47.996;7.786;2023-04-15T03:12:38;1.90;;;1.03;;
16543;SDS011;8384;47.996;7.786;2023-04-15T03:15:04;1.77;;;1.00;;
16543;SDS011;8384;47.996;7.786;2023-04-15T03:17:30;2.97;;;1.58;;
16543;SDS011;8384;47.996;7.786;2023-04-15T03:19:56;1.92;;;1.17;;
16543;SDS011;8384;47.996;7.786;2023-04-15T03:22:21;2.25;;;1.10;;
16543;SDS011;8384;47.996;7.786;2023-04-15T03:24:46;2.38;;;1.13;;
16543;SDS011;8384;47.996;7.786;2023-04-15T03:27:11;2.13;;;1.27;;
16543;SDS011;8384;47.996;7.786;2023-04-15T03:29:37;2.72;;;1.20;;
16543;SDS011;8384;47.996;7.786;2023-04-15T03:32:03;2.25;;;1.17;;
16543;SDS011;8384;47.996;7.786;2023-04-15T03:34:28;1.53;;;1.17;;
16543;SDS011;8384;47.996;7.786;2023-04-15T03:36:53;2.00;;;1.30;;
16543;SDS011;8384;47.996;7.786;2023-04-15T03:39:20;2.63;;;1.33;;
16543;SDS011;8384;47.996;7.786;2023-04-15T03:41:45;1.90;;;1.60;;
16543;SDS011;8384;47.996;7.786;2023-04-15T03:44:11;2.30;;;1.63;;
16543;SDS011;8384;47.996;7.786;2023-04-15T03:46:36;2.70;;;1.40;;
16543;SDS011;8384;47.996;7.786;2023-04-15T03:49:01;2.40;;;1.30;;
16543;SDS011;8384;47.996;7.786;2023-04-15T03:51:26;3.20;;;1.50;;
16543;SDS011;8384;47.996;7.786;2023-04-15T03:53:52;2.37;;;1.40;;
16543;SDS011;8384;47.996;7.786;2023-04-15T03:56:17;2.00;;;1.30;;
16543;SDS011;8384;47.996;7.786;2023-04-15T03:58:42;2.27;;;1.40;;
16543;SDS011;8384;47.996;7.786;2023-04-15T04:01:08;2.30;;;1.30;;
16543;SDS011;8384;47.996;7.786;2023-04-15T04:03:33;2.37;;;1.23;;
16543;SDS011;8384;47.996;7.786;2023-04-15T04:05:58;2.17;;;1.50;;
16543;SDS011;8384;47.996;7.786;2023-04-15T04:08:23;2.10;;;1.37;;
16543;SDS011;8384;47.996;7.786;2023-04-15T04:10:49;1.90;;;1.20;;
16543;SDS011;8384;47.996;7.786;2023-04-15T04:13:14;2.00;;;1.30;;
16543;SDS011;8384;47.996;7.786;2023-04-15T04:15:40;2.33;;;1.20;;
16543;SDS011;8384;47.996;7.786;2023-04-15T04:18:05;1.70;;;1.30;;
16543;SDS011;8384;47.996;7.786;2023-04-15T04:20:31;4.30;;;2.30;;
16543;SDS011;8384;47.996;7.786;2023-04-15T04:22:56;1.93;;;1.40;;
16543;SDS011;8384;47.996;7.786;2023-04-15T04:25:22;1.87;;;1.30;;
16543;SDS011;8384;47.996;7.786;2023-04-15T04:27:48;2.63;;;1.20;;
16543;SDS011;8384;47.996;7.786;2023-04-15T04:30:13;3.63;;;1.23;;
16543;SDS011;8384;47.996;7.786;2023-04-15T04:32:38;1.77;;;1.20;;
16543;SDS011;8384;47.996;7.786;2023-04-15T04:35:04;2.37;;;1.30;;
16543;SDS011;8384;47.996;7.786;2023-04-15T04:37:29;1.60;;;1.10;;
16543;SDS011;8384;47.996;7.786;2023-04-15T04:39:55;2.17;;;1.30;;
16543;SDS011;8384;47.996;7.786;2023-04-15T04:42:20;2.87;;;2.03;;
16543;SDS011;8384;47.996;7.786;2023-04-15T04:44:46;2.05;;;1.30;;
16543;SDS011;8384;47.996;7.786;2023-04-15T04:47:11;1.98;;;1.27;;
16543;SDS011;8384;47.996;7.786;2023-04-15T04:49:37;1.85;;;1.35;;
16543;SDS011;8384;47.996;7.786;2023-04-15T04:52:02;1.85;;;1.20;;
16543;SDS011;8384;47.996;7.786;2023-04-15T04:54:27;2.25;;;1.30;;
16543;SDS011;8384;47.996;7.786;2023-04-15T04:56:54;2.28;;;1.60;;
16543;SDS011;8384;47.996;7.786;2023-04-15T04:59:19;1.53;;;1.20;;
16543;SDS011;8384;47.996;7.786;2023-04-15T05:01:44;1.83;;;1.13;;
16543;SDS011;8384;47.996;7.786;2023-04-15T05:04:10;1.60;;;1.10;;
16543;SDS011;8384;47.996;7.786;2023-04-15T05:06:35;3.30;;;1.43;;
16543;SDS011;8384;47.996;7.786;2023-04-15T05:09:01;3.43;;;1.40;;
16543;SDS011;8384;47.996;7.786;2023-04-15T05:11:27;2.33;;;1.30;;
16543;SDS011;8384;47.996;7.786;2023-04-15T05:13:52;1.90;;;1.20;;
16543;SDS011;8384;47.996;7.786;2023-04-15T05:16:18;1.80;;;1.40;;
16543;SDS011;8384;47.996;7.786;2023-04-15T05:18:43;2.03;;;1.30;;
16543;SDS011;8384;47.996;7.786;2023-04-15T05:21:09;2.77;;;1.30;;
16543;SDS011;8384;47.996;7.786;2023-04-15T05:23:34;1.40;;;1.00;;
16543;SDS011;8384;47.996;7.786;2023-04-15T05:26:00;2.83;;;1.43;;
16543;SDS011;8384;47.996;7.786;2023-04-15T05:28:25;2.73;;;1.27;;
16543;SDS011;8384;47.996;7.786;2023-04-15T05:30:51;1.83;;;1.30;;
16543;SDS011;8384;47.996;7.786;2023-04-15T05:33:16;3.13;;;2.20;;
16543;SDS011;8384;47.996;7.786;2023-04-15T05:35:41;2.50;;;1.43;;
16543;SDS011;8384;47.996;7.786;2023-04-15T05:38:07;1.53;;;1.30;;
16543;SDS011;8384;47.996;7.786;2023-04-15T05:40:32;2.27;;;1.40;;
16543;SDS011;8384;47.996;7.786;2023-04-15T05:42:57;2.50;;;1.30;;
16543;SDS011;8384;47.996;7.786;2023-04-15T05:45:22;1.83;;;1.20;;
16543;SDS011;8384;47.996;7.786;2023-04-15T05:47:48;2.07;;;1.20;;
16543;SDS011;8384;47.996;7.786;2023-04-15T05:50:18;2.92;;;1.40;;
16543;SDS011;8384;47.996;7.786;2023-04-15T05:52:43;2.70;;;1.30;;
16543;SDS011;8384;47.996;7.786;2023-04-15T05:55:10;2.53;;;1.23;;
16543;SDS011;8384;47.996;7.786;2023-04-15T05:57:35;2.30;;;1.20;;
16543;SDS011;8384;47.996;7.786;2023-04-15T06:00:01;3.15;;;1.48;;
16543;SDS011;8384;47.996;7.786;2023-04-15T06:02:29;2.10;;;1.30;;
16543;SDS011;8384;47.996;7.786;2023-04-15T06:04:54;1.97;;;1.30;;
16543;SDS011;8384;47.996;7.786;2023-04-15T06:07:19;2.67;;;1.50;;
16543;SDS011;8384;47.996;7.786;2023-04-15T06:09:45;2.37;;;1.47;;
16543;SDS011;8384;47.996;7.786;2023-04-15T06:12:10;2.77;;;1.50;;
16543;SDS011;8384;47.996;7.786;2023-04-15T06:14:37;2.50;;;1.42;;
16543;SDS011;8384;47.996;7.786;2023-04-15T06:17:03;3.38;;;1.63;;
16543;SDS011;8384;47.996;7.786;2023-04-15T06:19:28;3.00;;;1.80;;
16543;SDS011;8384;47.996;7.786;2023-04-15T06:21:54;1.67;;;1.30;;
16543;SDS011;8384;47.996;7.786;2023-04-15T06:24:19;3.33;;;1.60;;
16543;SDS011;8384;47.996;7.786;2023-04-15T06:26:45;2.50;;;1.48;;
16543;SDS011;8384;47.996;7.786;2023-04-15T06:29:11;2.70;;;1.63;;
16543;SDS011;8384;47.996;7.786;2023-04-15T06:31:36;2.23;;;1.60;;
16543;SDS011;8384;47.996;7.786;2023-04-15T06:34:01;3.17;;;1.80;;
16543;SDS011;8384;47.996;7.786;2023-04-15T06:36:27;2.63;;;1.60;;
16543;SDS011;8384;47.996;7.786;2023-04-15T06:38:52;2.83;;;1.70;;
16543;SDS011;8384;47.996;7.786;2023-04-15T06:41:17;2.20;;;1.73;;
16543;SDS011;8384;47.996;7.786;2023-04-15T06:43:42;3.13;;;1.73;;
16543;SDS011;8384;47.996;7.786;2023-04-15T06:46:08;3.00;;;1.70;;
16543;SDS011;8384;47.996;7.786;2023-04-15T06:48:34;2.33;;;1.73;;
16543;SDS011;8384;47.996;7.786;2023-04-15T06:50:59;3.10;;;1.80;;
16543;SDS011;8384;47.996;7.786;2023-04-15T06:53:25;2.92;;;2.03;;
16543;SDS011;8384;47.996;7.786;2023-04-15T06:55:53;2.45;;;1.90;;
16543;SDS011;8384;47.996;7.786;2023-04-15T06:58:18;2.70;;;1.80;;
16543;SDS011;8384;47.996;7.786;2023-04-15T07:00:43;3.30;;;1.83;;
16543;SDS011;8384;47.996;7.786;2023-04-15T07:03:10;3.60;;;1.80;;
16543;SDS011;8384;47.996;7.786;2023-04-15T07:05:37;2.30;;;1.80;;
16543;SDS011;8384;47.996;7.786;2023-04-15T07:08:02;3.10;;;1.80;;
16543;SDS011;8384;47.996;7.786;2023-04-15T07:10:28;2.05;;;1.73;;
16543;SDS011;8384;47.996;7.786;2023-04-15T07:12:53;2.78;;;1.77;;
16543;SDS011;8384;47.996;7.786;2023-04-15T07:15:19;3.15;;;1.88;;
16543;SDS011;8384;47.996;7.786;2023-04-15T07:17:44;2.33;;;1.60;;
16543;SDS011;8384;47.996;7.786;2023-04-15T07:20:10;2.10;;;1.70;;
16543;SDS011;8384;47.996;7.786;2023-04-15T07:22:36;2.40;;;1.60;;
16543;SDS011;8384;47.996;7.786;2023-04-15T07:25:02;3.10;;;1.73;;
16543;SDS011;8384;47.996;7.786;2023-04-15T07:27:28;3.17;;;1.90;;
16543;SDS011;8384;47.996;7.786;2023-04-15T07:29:53;3.40;;;1.80;;
16543;SDS011;8384;47.996;7.786;2023-04-15T07:32:18;3.15;;;1.70;;
16543;SDS011;8384;47.996;7.786;2023-04-15T07:34:44;2.40;;;1.60;;
16543;SDS011;8384;47.996;7.786;2023-04-15T07:37:09;2.53;;;1.70;;
16543;SDS011;8384;47.996;7.786;2023-04-15T07:39:35;3.23;;;2.10;;
16543;SDS011;8384;47.996;7.786;2023-04-15T07:42:01;1.83;;;1.58;;
16543;SDS011;8384;47.996;7.786;2023-04-15T07:44:26;2.75;;;1.75;;
16543;SDS011;8384;47.996;7.786;2023-04-15T07:46:51;3.83;;;2.10;;
16543;SDS011;8384;47.996;7.786;2023-04-15T07:49:17;3.57;;;2.10;;
16543;SDS011;8384;47.996;7.786;2023-04-15T07:51:43;2.92;;;2.10;;
16543;SDS011;8384;47.996;7.786;2023-04-15T07:54:09;2.63;;;2.03;;
16543;SDS011;8384;47.996;7.786;2023-04-15T07:56:34;4.27;;;2.30;;
16543;SDS011;8384;47.996;7.786;2023-04-15T07:58:59;3.53;;;2.13;;
16543;SDS011;8384;47.996;7.786;2023-04-15T08:01:26;2.40;;;1.90;;
16543;SDS011;8384;47.996;7.786;2023-04-15T08:03:51;2.83;;;1.90;;
16543;SDS011;8384;47.996;7.786;2023-04-15T08:06:16;2.80;;;2.00;;
16543;SDS011;8384;47.996;7.786;2023-04-15T08:08:42;2.67;;;1.87;;
16543;SDS011;8384;47.996;7.786;2023-04-15T08:11:08;2.53;;;1.80;;
16543;SDS011;8384;47.996;7.786;2023-04-15T08:13:33;2.42;;;1.85;;
16543;SDS011;8384;47.996;7.786;2023-04-15T08:18:43;4.18;;;2.10;;
16543;SDS011;8384;47.996;7.786;2023-04-15T08:21:09;2.20;;;1.80;;
16543;SDS011;8384;47.996;7.786;2023-04-15T08:23:34;2.37;;;1.87;;
16543;SDS011;8384;47.996;7.786;2023-04-15T08:25:59;3.03;;;1.90;;
16543;SDS011;8384;47.996;7.786;2023-04-15T08:28:25;2.40;;;1.60;;
16543;SDS011;8384;47.996;7.786;2023-04-15T08:30:51;2.70;;;2.08;;
16543;SDS011;8384;47.996;7.786;2023-04-15T08:33:17;3.03;;;2.10;;
16543;SDS011;8384;47.996;7.786;2023-04-15T08:35:42;2.70;;;2.00;;
16543;SDS011;8384;47.996;7.786;2023-04-15T08:38:07;2.80;;;2.20;;
16543;SDS011;8384;47.996;7.786;2023-04-15T08:40:34;3.53;;;2.20;;
16543;SDS011;8384;47.996;7.786;2023-04-15T08:43:26;2.33;;;2.05;;
16543;SDS011;8384;47.996;7.786;2023-04-15T08:45:54;3.30;;;2.05;;
16543;SDS011;8384;47.996;7.786;2023-04-15T08:48:20;2.88;;;2.03;;
16543;SDS011;8384;47.996;7.786;2023-04-15T08:50:47;3.28;;;2.05;;
16543;SDS011;8384;47.996;7.786;2023-04-15T08:53:13;3.97;;;2.20;;
16543;SDS011;8384;47.996;7.786;2023-04-15T08:55:46;2.60;;;1.88;;
16543;SDS011;8384;47.996;7.786;2023-04-15T08:58:15;3.57;;;2.20;;
16543;SDS011;8384;47.996;7.786;2023-04-15T09:00:42;3.03;;;2.00;;
16543;SDS011;8384;47.996;7.786;2023-04-15T09:03:07;3.40;;;2.22;;
16543;SDS011;8384;47.996;7.786;2023-04-15T09:05:36;2.80;;;2.20;;
16543;SDS011;8384;47.996;7.786;2023-04-15T09:08:02;3.33;;;2.20;;
16543;SDS011;8384;47.996;7.786;2023-04-15T09:10:30;2.58;;;2.03;;
16543;SDS011;8384;47.996;7.786;2023-04-15T09:12:56;2.77;;;1.93;;
16543;SDS011;8384;47.996;7.786;2023-04-15T09:15:23;2.92;;;2.20;;
16543;SDS011;8384;47.996;7.786;2023-04-15T09:17:50;3.28;;;2.35;;
16543;SDS011;8384;47.996;7.786;2023-04-15T09:20:15;3.23;;;2.10;;
16543;SDS011;8384;47.996;7.786;2023-04-15T09:22:43;2.95;;;2.20;;
16543;SDS011;8384;47.996;7.786;2023-04-15T09:27:56;2.53;;;1.90;;
16543;SDS011;8384;47.996;7.786;2023-04-15T09:30:25;3.35;;;2.00;;
16543;SDS011;8384;47.996;7.786;2023-04-15T09:32:52;2.80;;;2.00;;
16543;SDS011;8384;47.996;7.786;2023-04-15T09:35:20;2.65;;;2.30;;
16543;SDS011;8384;47.996;7.786;2023-04-15T09:37:46;2.85;;;2.15;;
16543;SDS011;8384;47.996;7.786;2023-04-15T09:40:13;3.50;;;2.17;;
16543;SDS011;8384;47.996;7.786;2023-04-15T09:42:54;4.40;;;2.23;;
16543;SDS011;8384;47.996;7.786;2023-04-15T09:45:20;3.57;;;2.27;;
16543;SDS011;8384;47.996;7.786;2023-04-15T09:47:45;3.42;;;2.22;;
16543;SDS011;8384;47.996;7.786;2023-04-15T09:50:11;2.95;;;2.33;;
16543;SDS011;8384;47.996;7.786;2023-04-15T09:52:40;3.10;;;2.40;;
16543;SDS011;8384;47.996;7.786;2023-04-15T09:55:10;3.15;;;2.30;;
16543;SDS011;8384;47.996;7.786;2023-04-15T09:57:37;3.60;;;2.17;;
16543;SDS011;8384;47.996;7.786;2023-04-15T10:00:06;2.85;;;2.10;;
16543;SDS011;8384;47.996;7.786;2023-04-15T10:02:35;3.47;;;2.20;;
16543;SDS011;8384;47.996;7.786;2023-04-15T10:05:01;3.30;;;2.30;;
16543;SDS011;8384;47.996;7.786;2023-04-15T10:07:27;3.13;;;2.33;;
16543;SDS011;8384;47.996;7.786;2023-04-15T10:09:53;3.70;;;2.20;;
16543;SDS011;8384;47.996;7.786;2023-04-15T10:12:19;3.25;;;2.20;;
16543;SDS011;8384;47.996;7.786;2023-04-15T10:14:47;3.28;;;2.45;;
16543;SDS011;8384;47.996;7.786;2023-04-15T10:17:16;2.53;;;2.00;;
16543;SDS011;8384;47.996;7.786;2023-04-15T10:19:42;2.85;;;2.25;;
16543;SDS011;8384;47.996;7.786;2023-04-15T10:22:08;3.53;;;2.50;;
16543;SDS011;8384;47.996;7.786;2023-04-15T10:24:34;3.27;;;2.33;;
16543;SDS011;8384;47.996;7.786;2023-04-15T10:27:01;3.25;;;2.45;;
16543;SDS011;8384;47.996;7.786;2023-04-15T10:29:28;4.10;;;2.50;;
16543;SDS011;8384;47.996;7.786;2023-04-15T10:31:54;4.30;;;2.40;;
16543;SDS011;8384;47.996;7.786;2023-04-15T10:34:20;2.50;;;2.17;;
16543;SDS011;8384;47.996;7.786;2023-04-15T10:36:47;3.63;;;2.40;;
16543;SDS011;8384;47.996;7.786;2023-04-15T10:42:07;3.92;;;3.25;;
16543;SDS011;8384;47.996;7.786;2023-04-15T10:44:38;4.85;;;3.20;;
16543;SDS011;8384;47.996;7.786;2023-04-15T10:47:05;4.63;;;3.15;;
16543;SDS011;8384;47.996;7.786;2023-04-15T10:49:34;3.03;;;2.40;;
16543;SDS011;8384;47.996;7.786;2023-04-15T10:52:07;3.80;;;2.42;;
16543;SDS011;8384;47.996;7.786;2023-04-15T10:54:32;2.80;;;2.00;;
16543;SDS011;8384;47.996;7.786;2023-04-15T10:59:28;3.87;;;2.20;;
16543;SDS011;8384;47.996;7.786;2023-04-15T11:02:00;3.13;;;2.30;;
16543;SDS011;8384;47.996;7.786;2023-04-15T11:12:41;3.53;;;2.28;;
16543;SDS011;8384;47.996;7.786;2023-04-15T11:15:24;2.90;;;2.33;;
16543;SDS011;8384;47.996;7.786;2023-04-15T11:17:58;4.55;;;2.50;;
16543;SDS011;8384;47.996;7.786;2023-04-15T11:20:34;3.65;;;2.35;;
16543;SDS011;8384;47.996;7.786;2023-04-15T11:22:59;2.75;;;2.38;;
16543;SDS011;8384;47.996;7.786;2023-04-15T11:25:25;3.23;;;2.67;;
16543;SDS011;8384;47.996;7.786;2023-04-15T11:27:52;2.85;;;2.30;;
16543;SDS011;8384;47.996;7.786;2023-04-15T11:30:19;3.70;;;2.33;;
16543;SDS011;8384;47.996;7.786;2023-04-15T11:32:49;3.22;;;2.40;;
16543;SDS011;8384;47.996;7.786;2023-04-15T11:35:16;3.27;;;2.30;;
16543;SDS011;8384;47.996;7.786;2023-04-15T11:37:43;3.88;;;2.30;;
16543;SDS011;8384;47.996;7.786;2023-04-15T11:40:09;3.22;;;2.55;;
16543;SDS011;8384;47.996;7.786;2023-04-15T11:42:34;2.30;;;2.10;;
16543;SDS011;8384;47.996;7.786;2023-04-15T11:45:07;2.77;;;2.40;;
16543;SDS011;8384;47.996;7.786;2023-04-15T11:47:36;5.87;;;3.00;;
16543;SDS011;8384;47.996;7.786;2023-04-15T11:52:51;3.28;;;2.70;;
16543;SDS011;8384;47.996;7.786;2023-04-15T11:55:17;2.95;;;2.45;;
16543;SDS011;8384;47.996;7.786;2023-04-15T11:57:42;3.43;;;2.27;;
16543;SDS011;8384;47.996;7.786;2023-04-15T12:00:08;3.22;;;2.47;;
16543;SDS011;8384;47.996;7.786;2023-04-15T12:02:35;3.40;;;2.40;;
16543;SDS011;8384;47.996;7.786;2023-04-15T12:05:01;3.80;;;2.50;;
16543;SDS011;8384;47.996;7.786;2023-04-15T12:07:29;2.88;;;2.33;;
16543;SDS011;8384;47.996;7.786;2023-04-15T12:09:54;3.27;;;2.50;;
16543;SDS011;8384;47.996;7.786;2023-04-15T12:12:21;3.78;;;2.45;;
16543;SDS011;8384;47.996;7.786;2023-04-15T12:14:51;3.80;;;2.30;;
16543;SDS011;8384;47.996;7.786;2023-04-15T12:17:16;3.88;;;2.53;;
16543;SDS011;8384;47.996;7.786;2023-04-15T12:19:42;2.50;;;2.30;;
16543;SDS011;8384;47.996;7.786;2023-04-15T12:22:10;3.43;;;2.23;;
16543;SDS011;8384;47.996;7.786;2023-04-15T12:24:37;3.63;;;2.53;;
16543;SDS011;8384;47.996;7.786;2023-04-15T12:27:04;3.05;;;2.30;;
16543;SDS011;8384;47.996;7.786;2023-04-15T12:29:31;2.65;;;2.33;;
16543;SDS011;8384;47.996;7.786;2023-04-15T12:32:08;4.85;;;2.30;;
16543;SDS011;8384;47.996;7.786;2023-04-15T12:34:39;4.22;;;2.72;;
16543;SDS011;8384;47.996;7.786;2023-04-15T12:37:07;3.58;;;2.53;;
16543;SDS011;8384;47.996;7.786;2023-04-15T12:39:35;2.97;;;2.30;;
16543;SDS011;8384;47.996;7.786;2023-04-15T12:42:02;3.13;;;2.25;;
16543;SDS011;8384;47.996;7.786;2023-04-15T12:44:28;3.45;;;2.50;;
16543;SDS011;8384;47.996;7.786;2023-04-15T12:46:53;3.85;;;2.78;;
16543;SDS011;8384;47.996;7.786;2023-04-15T12:49:20;3.13;;;2.53;;
16543;SDS011;8384;47.996;7.786;2023-04-15T12:51:50;4.28;;;2.28;;
16543;SDS011;8384;47.996;7.786;2023-04-15T12:54:17;3.47;;;2.30;;
16543;SDS011;8384;47.996;7.786;2023-04-15T12:56:43;3.35;;;2.40;;
16543;SDS011;8384;47.996;7.786;2023-04-15T12:59:10;3.13;;;2.55;;
16543;SDS011;8384;47.996;7.786;2023-04-15T13:01:36;3.40;;;2.10;;
16543;SDS011;8384;47.996;7.786;2023-04-15T13:04:02;3.42;;;2.40;;
16543;SDS011;8384;47.996;7.786;2023-04-15T13:06:27;2.87;;;2.10;;
16543;SDS011;8384;47.996;7.786;2023-04-15T13:08:53;3.15;;;2.00;;
16543;SDS011;8384;47.996;7.786;2023-04-15T13:11:19;4.45;;;3.30;;
16543;SDS011;8384;47.996;7.786;2023-04-15T13:13:47;3.00;;;2.20;;
16543;SDS011;8384;47.996;7.786;2023-04-15T13:16:12;2.25;;;2.00;;
16543;SDS011;8384;47.996;7.786;2023-04-15T13:18:38;3.88;;;2.25;;
16543;SDS011;8384;47.996;7.786;2023-04-15T13:21:03;3.43;;;2.20;;
16543;SDS011;8384;47.996;7.786;2023-04-15T13:23:31;3.17;;;2.10;;
16543;SDS011;8384;47.996;7.786;2023-04-15T13:25:56;3.10;;;2.20;;
16543;SDS011;8384;47.996;7.786;2023-04-15T13:28:21;3.50;;;2.10;;
16543;SDS011;8384;47.996;7.786;2023-04-15T13:30:47;3.80;;;2.07;;
16543;SDS011;8384;47.996;7.786;2023-04-15T13:33:13;3.20;;;2.00;;
16543;SDS011;8384;47.996;7.786;2023-04-15T13:35:38;4.00;;;2.10;;
16543;SDS011;8384;47.996;7.786;2023-04-15T13:38:04;3.10;;;1.90;;
16543;SDS011;8384;47.996;7.786;2023-04-15T13:40:29;2.97;;;1.90;;
16543;SDS011;8384;47.996;7.786;2023-04-15T13:42:55;2.77;;;1.50;;
16543;SDS011;8384;47.996;7.786;2023-04-15T13:45:21;2.83;;;1.75;;
16543;SDS011;8384;47.996;7.786;2023-04-15T13:47:46;2.80;;;2.00;;
16543;SDS011;8384;47.996;7.786;2023-04-15T13:50:12;2.47;;;1.73;;
16543;SDS011;8384;47.996;7.786;2023-04-15T13:52:37;2.60;;;1.80;;
16543;SDS011;8384;47.996;7.786;2023-04-15T13:55:03;3.07;;;1.70;;
16543;SDS011;8384;47.996;7.786;2023-04-15T13:57:28;2.85;;;2.50;;
16543;SDS011;8384;47.996;7.786;2023-04-15T13:59:53;3.37;;;2.20;;
16543;SDS011;8384;47.996;7.786;2023-04-15T14:02:19;3.87;;;2.40;;
16543;SDS011;8384;47.996;7.786;2023-04-15T14:04:45;3.05;;;1.90;;
16543;SDS011;8384;47.996;7.786;2023-04-15T14:07:11;2.73;;;2.00;;
16543;SDS011;8384;47.996;7.786;2023-04-15T14:09:36;2.20;;;1.93;;
16543;SDS011;8384;47.996;7.786;2023-04-15T14:12:02;2.57;;;2.17;;
16543;SDS011;8384;47.996;7.786;2023-04-15T14:14:27;2.70;;;2.10;;
16543;SDS011;8384;47.996;7.786;2023-04-15T14:16:53;2.97;;;2.07;;
16543;SDS011;8384;47.996;7.786;2023-04-15T14:19:20;3.30;;;2.10;;
16543;SDS011;8384;47.996;7.786;2023-04-15T14:21:46;2.70;;;2.17;;
16543;SDS011;8384;47.996;7.786;2023-04-15T14:24:11;3.43;;;1.97;;
16543;SDS011;8384;47.996;7.786;2023-04-15T14:26:36;3.47;;;2.30;;
16543;SDS011;8384;47.996;7.786;2023-04-15T14:29:01;2.60;;;2.10;;
16543;SDS011;8384;47.996;7.786;2023-04-15T14:31:27;3.67;;;2.10;;
16543;SDS011;8384;47.996;7.786;2023-04-15T14:33:52;3.37;;;2.10;;
16543;SDS011;8384;47.996;7.786;2023-04-15T14:36:17;2.90;;;2.10;;
16543;SDS011;8384;47.996;7.786;2023-04-15T14:38:42;3.00;;;1.80;;
16543;SDS011;8384;47.996;7.786;2023-04-15T14:41:08;3.00;;;2.00;;
16543;SDS011;8384;47.996;7.786;2023-04-15T14:43:34;3.17;;;1.90;;
16543;SDS011;8384;47.996;7.786;2023-04-15T14:45:59;2.90;;;1.98;;
16543;SDS011;8384;47.996;7.786;2023-04-15T14:48:25;2.67;;;2.10;;
16543;SDS011;8384;47.996;7.786;2023-04-15T14:50:51;2.92;;;2.05;;
16543;SDS011;8384;47.996;7.786;2023-04-15T14:53:17;2.97;;;1.90;;
16543;SDS011;8384;47.996;7.786;2023-04-15T14:55:42;3.07;;;2.20;;
16543;SDS011;8384;47.996;7.786;2023-04-15T14:58:08;2.78;;;1.83;;
16543;SDS011;8384;47.996;7.786;2023-04-15T15:00:34;4.13;;;2.30;;
16543;SDS011;8384;47.996;7.786;2023-04-15T15:03:03;3.35;;;2.10;;
16543;SDS011;8384;47.996;7.786;2023-04-15T15:05:30;3.53;;;2.10;;
16543;SDS011;8384;47.996;7.786;2023-04-15T15:07:55;3.47;;;2.10;;
16543;SDS011;8384;47.996;7.786;2023-04-15T15:10:20;3.10;;;1.80;;
16543;SDS011;8384;47.996;7.786;2023-04-15T15:12:46;4.10;;;2.30;;
16543;SDS011;8384;47.996;7.786;2023-04-15T15:15:11;3.90;;;2.90;;